Time;durP1;ratioP1;P1;durP2;ratioP2;P2;SDS_P1;SDS_P2;PMS_P1;PMS_P2;Temp;Humidity;BMP_temperature;BMP_pressure;BME280_temperature;BME280_humidity;BME280_pressure;Samples;Min_cycle;Max_cycle;Signal;HPM_P1;HPM_P2
2024/04/04 00:01:33;;;;;;;2.63;1.83;;;;;;;16.67;48.49;99700.50;5078682;28;20040;-64
2024/04/04 00:03:59;;;;;;;4.65;1.75;;;;;;;16.48;49.20;99704.72;5080047;28;20040;-64
2024/04/04 00:06:24;;;;;;;2.40;1.75;;;;;;;16.58;48.80;99696.31;5078374;28;20039;-64
2024/04/04 00:08:50;;;;;;;4.90;1.92;;;;;;;16.73;48.57;99702.38;5079996;28;20047;-64
2024/04/04 00:11:17;;;;;;;2.35;1.60;;;;;;;16.73;48.29;99699.69;5078557;28;20262;-65
2024/04/04 00:13:43;;;;;;;2.17;1.63;;;;;;;16.88;47.55;99694.97;5080413;28;20035;-64
2024/04/04 00:16:09;;;;;;;3.70;1.70;;;;;;;16.88;47.50;99692.31;5078846;28;20330;-63
2024/04/04 00:18:34;;;;;;;3.90;1.95;;;;;;;17.03;47.35;99696.63;5079403;28;20036;-64
2024/04/04 00:21:00;;;;;;;2.80;1.58;;;;;;;17.06;47.66;99697.06;5079038;28;20036;-64
2024/04/04 00:23:25;;;;;;;2.25;1.48;;;;;;;17.08;48.31;99696.84;5079440;28;20270;-64
2024/04/04 00:25:51;;;;;;;1.85;1.73;;;;;;;17.11;48.72;99697.25;5079412;28;20041;-64
2024/04/04 00:28:16;;;;;;;4.82;2.10;;;;;;;17.12;48.44;99698.91;5077962;28;20235;-64
2024/04/04 00:30:42;;;;;;;3.08;1.65;;;;;;;17.05;48.27;99694.59;5078941;28;20044;-64
2024/04/04 00:33:07;;;;;;;4.10;1.98;;;;;;;16.95;49.06;99688.81;5078319;28;20081;-64
2024/04/04 00:35:33;;;;;;;2.35;2.03;;;;;;;16.95;49.76;99683.47;5079505;28;20074;-65
2024/04/04 00:37:58;;;;;;;2.85;1.58;;;;;;;16.95;48.65;99686.16;5078341;28;20357;-64
2024/04/04 00:40:24;;;;;;;1.98;1.45;;;;;;;16.86;49.93;99686.34;5078918;28;20041;-65
2024/04/04 00:42:50;;;;;;;3.15;1.73;;;;;;;16.81;49.47;99698.69;5077472;28;20047;-64
2024/04/04 00:45:16;;;;;;;3.80;1.70;;;;;;;16.66;50.24;99695.34;5079095;28;20067;-64
2024/04/04 00:47:46;;;;;;;1.73;1.50;;;;;;;16.59;50.37;99703.28;5077612;28;20032;-64
2024/04/04 00:50:12;;;;;;;4.07;1.83;;;;;;;16.29;51.03;99700.13;5079465;28;20048;-64
2024/04/04 00:52:38;;;;;;;2.17;1.30;;;;;;;16.24;50.49;99700.72;5077837;28;20044;-64
2024/04/04 00:55:04;;;;;;;2.20;1.63;;;;;;;16.09;50.78;99689.34;5078844;28;20040;-64
2024/04/04 00:57:30;;;;;;;2.80;1.27;;;;;;;16.19;50.99;99691.66;5078629;28;20045;-64
2024/04/04 00:59:56;;;;;;;2.70;1.40;;;;;;;16.18;51.17;99690.84;5079611;28;20032;-64
2024/04/04 01:02:22;;;;;;;2.53;1.52;;;;;;;16.14;50.94;99691.44;5078218;28;20041;-65
2024/04/04 01:04:47;;;;;;;2.10;1.27;;;;;;;16.11;51.31;99687.31;5078017;28;20046;-64
2024/04/04 01:07:14;;;;;;;2.80;1.35;;;;;;;16.23;51.32;99691.06;5078801;28;20044;-64
2024/04/04 01:09:40;;;;;;;3.70;1.45;;;;;;;16.36;51.15;99681.44;5077167;28;20070;-64
2024/04/04 01:12:05;;;;;;;4.35;1.60;;;;;;;16.44;51.01;99687.44;5079197;28;20048;-64
2024/04/04 01:14:31;;;;;;;2.72;1.65;;;;;;;16.50;51.28;99689.28;5076149;28;20043;-64
2024/04/04 01:16:57;;;;;;;2.45;1.42;;;;;;;16.55;51.07;99692.19;5076395;28;20071;-64
2024/04/04 01:19:22;;;;;;;1.50;1.08;;;;;;;16.36;51.57;99695.63;5078129;28;20330;-64
2024/04/04 01:21:48;;;;;;;2.42;1.30;;;;;;;16.42;51.45;99694.81;5075667;28;20044;-64
2024/04/04 01:24:13;;;;;;;1.50;1.10;;;;;;;16.17;52.07;99688.34;5077469;28;20032;-64
2024/04/04 01:26:39;;;;;;;1.60;1.10;;;;;;;16.09;52.97;99677.84;5089253;28;20051;-64
2024/04/04 01:29:04;;;;;;;3.05;1.30;;;;;;;16.01;53.61;99678.84;5097685;28;20031;-62
2024/04/04 01:31:30;;;;;;;2.00;1.20;;;;;;;15.94;53.80;99689.50;5088231;28;20044;-62
2024/04/04 01:33:56;;;;;;;2.60;1.50;;;;;;;15.69;53.62;99696.34;5077593;28;20361;-62
2024/04/04 01:36:21;;;;;;;1.50;1.40;;;;;;;15.69;53.72;99704.34;5078523;28;20033;-62
2024/04/04 01:38:47;;;;;;;2.58;1.42;;;;;;;15.70;53.93;99708.66;5077986;28;20036;-63
2024/04/04 01:41:12;;;;;;;2.65;1.58;;;;;;;15.62;53.76;99704.31;5077496;28;20033;-63
2024/04/04 01:43:38;;;;;;;1.40;1.30;;;;;;;15.61;53.97;99712.50;5078808;28;20070;-64
2024/04/04 01:46:04;;;;;;;4.60;1.50;;;;;;;15.63;53.72;99705.94;5076593;28;20290;-62
2024/04/04 01:48:29;;;;;;;3.10;1.50;;;;;;;15.72;53.55;99703.94;5080193;28;20318;-62
2024/04/04 01:50:55;;;;;;;3.55;1.70;;;;;;;15.80;53.41;99706.47;5075952;28;20394;-63
2024/04/04 01:53:20;;;;;;;2.67;1.50;;;;;;;15.79;53.38;99704.81;5079842;28;20033;-63
2024/04/04 01:55:46;;;;;;;2.65;1.35;;;;;;;15.78;53.70;99705.84;5081258;28;20335;-63
2024/04/04 01:58:11;;;;;;;3.80;1.58;;;;;;;15.75;53.31;99698.22;5082244;28;20039;-63
2024/04/04 02:00:37;;;;;;;2.50;1.40;;;;;;;15.63;53.84;99700.63;5080961;28;20086;-63
2024/04/04 02:03:02;;;;;;;2.35;1.58;;;;;;;15.58;54.26;99705.69;5081960;28;20028;-64
2024/04/04 02:05:28;;;;;;;3.38;1.73;;;;;;;15.43;54.50;99704.94;5080423;28;20262;-63
2024/04/04 02:07:54;;;;;;;4.93;1.65;;;;;;;15.28;55.30;99701.53;5080865;28;20028;-63
2024/04/04 02:10:19;;;;;;;3.65;1.30;;;;;;;15.24;55.49;99709.09;5080978;28;20048;-63
2024/04/04 02:12:44;;;;;;;5.00;1.70;;;;;;;15.15;55.66;99709.44;5081135;28;20241;-64
2024/04/04 02:15:10;;;;;;;2.85;1.55;;;;;;;14.99;56.44;99722.00;5081146;28;20043;-63
2024/04/04 02:17:36;;;;;;;5.20;1.83;;;;;;;14.94;57.21;99705.75;5080066;28;20379;-63
2024/04/04 02:20:02;;;;;;;3.00;1.60;;;;;;;14.86;57.63;99707.72;5083150;28;20111;-63
2024/04/04 02:22:28;;;;;;;2.25;1.77;;;;;;;14.81;57.97;99710.16;5079902;28;20029;-64
2024/04/04 02:24:54;;;;;;;5.85;1.88;;;;;;;14.95;57.82;99726.06;5082378;28;20039;-64
2024/04/04 02:27:19;;;;;;;4.47;1.95;;;;;;;15.00;57.83;99723.66;5080194;28;20057;-63
2024/04/04 02:29:45;;;;;;;3.28;1.60;;;;;;;15.18;57.30;99723.19;5082297;28;20043;-64
2024/04/04 02:32:10;;;;;;;3.83;1.80;;;;;;;15.39;56.69;99729.53;5079978;28;20028;-63
2024/04/04 02:34:36;;;;;;;4.40;2.10;;;;;;;15.49;56.26;99727.34;5081192;28;20037;-63
2024/04/04 02:37:01;;;;;;;4.93;2.05;;;;;;;15.55;56.34;99722.06;5080946;28;20351;-63
2024/04/04 02:39:28;;;;;;;10.20;2.00;;;;;;;15.37;55.83;99721.72;5081091;28;20068;-63
2024/04/04 02:41:54;;;;;;;5.00;2.03;;;;;;;15.49;55.09;99725.50;5080379;28;20109;-63
2024/04/04 02:44:19;;;;;;;3.80;1.60;;;;;;;15.66;55.12;99727.94;5081017;28;20308;-64
2024/04/04 02:46:45;;;;;;;4.20;1.80;;;;;;;15.70;55.48;99731.88;5081324;28;20047;-63
2024/04/04 02:49:10;;;;;;;4.32;1.95;;;;;;;15.78;55.43;99745.06;5081072;28;20225;-63
2024/04/04 02:51:36;;;;;;;5.38;2.25;;;;;;;15.89;55.47;99734.66;5080605;28;20334;-63
2024/04/04 02:54:01;;;;;;;4.28;2.50;;;;;;;15.92;55.26;99736.09;5080015;28;20352;-63
2024/04/04 02:56:27;;;;;;;5.78;2.47;;;;;;;15.79;55.76;99742.19;5082059;28;20072;-63
2024/04/04 02:58:52;;;;;;;3.13;2.55;;;;;;;15.68;56.84;99747.25;5079935;28;20082;-64
2024/04/04 03:01:18;;;;;;;5.40;2.50;;;;;;;15.70;56.39;99742.53;5080664;28;20047;-63
2024/04/04 03:03:44;;;;;;;6.07;2.50;;;;;;;15.62;56.54;99731.00;5080383;28;20040;-64
2024/04/04 03:06:10;;;;;;;5.78;2.78;;;;;;;15.57;56.85;99738.72;5080504;28;20112;-64
2024/04/04 03:08:37;;;;;;;8.55;2.40;;;;;;;15.61;56.84;99733.84;5080094;28;20047;-63
2024/04/04 03:11:03;;;;;;;4.95;2.25;;;;;;;15.52;56.46;99719.78;5081025;28;20037;-63
2024/04/04 03:13:30;;;;;;;5.63;2.67;;;;;;;15.52;56.74;99725.13;5079802;28;20260;-63
2024/04/04 03:15:58;;;;;;;5.05;2.35;;;;;;;15.57;56.44;99722.72;5081229;28;20045;-63
2024/04/04 03:18:24;;;;;;;6.63;2.38;;;;;;;15.60;55.94;99727.69;5079529;28;20036;-64
2024/04/04 03:20:50;;;;;;;4.32;2.05;;;;;;;15.54;56.37;99720.41;5079532;28;20048;-63
2024/04/04 03:23:16;;;;;;;3.75;2.13;;;;;;;15.50;56.16;99719.16;5079688;28;20052;-64
2024/04/04 03:25:41;;;;;;;3.65;2.22;;;;;;;15.50;56.55;99718.31;5080335;28;20349;-63
2024/04/04 03:28:07;;;;;;;3.65;2.20;;;;;;;15.46;56.98;99719.72;5080880;28;20055;-64
2024/04/04 03:30:32;;;;;;;7.05;2.40;;;;;;;15.39;57.71;99729.53;5079685;28;20055;-63
2024/04/04 03:32:58;;;;;;;4.18;2.22;;;;;;;15.41;56.50;99728.31;5080998;28;20314;-63
2024/04/04 03:35:25;;;;;;;3.42;2.10;;;;;;;15.26;56.71;99730.25;5079318;28;20238;-63
2024/04/04 03:37:51;;;;;;;4.07;2.13;;;;;;;15.21;56.11;99733.50;5080604;28;20081;-63
2024/04/04 03:40:16;;;;;;;6.72;2.30;;;;;;;15.31;55.81;99733.97;5078736;28;20087;-64
2024/04/04 03:42:42;;;;;;;6.93;2.15;;;;;;;15.33;55.36;99725.78;5080318;28;20032;-63
2024/04/04 03:45:08;;;;;;;7.10;2.60;;;;;;;15.30;55.02;99726.19;5079203;28;20044;-63
2024/04/04 03:47:36;;;;;;;2.25;2.00;;;;;;;15.39;54.66;99722.34;5080137;28;20037;-64
2024/04/04 03:50:02;;;;;;;5.30;2.13;;;;;;;15.40;54.06;99717.84;5078954;28;20217;-64
2024/04/04 03:52:28;;;;;;;3.28;2.00;;;;;;;15.49;54.10;99722.00;5080565;28;20036;-64
2024/04/04 03:54:54;;;;;;;5.18;2.00;;;;;;;15.47;54.10;99714.19;5079061;28;20301;-63
2024/04/04 03:57:19;;;;;;;4.07;2.45;;;;;;;15.48;54.12;99715.84;5080755;28;20044;-64
2024/04/04 03:59:45;;;;;;;6.63;2.28;;;;;;;15.39;54.25;99711.69;5080755;28;20403;-64
2024/04/04 04:02:10;;;;;;;8.48;2.42;;;;;;;15.45;54.40;99720.75;5080791;28;20044;-63
2024/04/04 04:04:36;;;;;;;5.70;2.20;;;;;;;15.39;54.29;99726.84;5078842;28;20040;-63
2024/04/04 04:07:01;;;;;;;5.82;2.10;;;;;;;15.21;54.93;99735.34;5080471;28;20231;-63
2024/04/04 04:09:27;;;;;;;5.50;2.10;;;;;;;15.17;55.54;99728.72;5078455;28;20064;-63
2024/04/04 04:11:52;;;;;;;10.65;2.60;;;;;;;15.21;55.60;99730.81;5079828;28;20051;-64
2024/04/04 04:14:18;;;;;;;6.05;2.25;;;;;;;15.29;55.24;99728.03;5078822;28;20385;-64
2024/04/04 04:16:43;;;;;;;9.75;2.90;;;;;;;15.28;55.33;99726.38;5078217;28;20041;-64
2024/04/04 04:19:09;;;;;;;26.63;4.28;;;;;;;15.31;55.06;99723.31;5079562;28;20095;-64
2024/04/04 04:21:35;;;;;;;29.83;8.32;;;;;;;15.30;55.23;99734.19;5077536;28;20051;-64
2024/04/04 04:24:02;;;;;;;22.42;6.32;;;;;;;15.31;55.61;99730.50;5080112;28;20348;-64
2024/04/04 04:26:28;;;;;;;18.77;6.45;;;;;;;15.34;55.18;99724.78;5078069;28;20048;-63
2024/04/04 04:28:54;;;;;;;13.50;5.75;;;;;;;15.25;55.63;99733.94;5081048;28;20039;-64
2024/04/04 04:31:23;;;;;;;14.30;5.00;;;;;;;14.87;55.67;99749.38;5077808;28;20032;-64
2024/04/04 04:33:49;;;;;;;14.50;5.53;;;;;;;14.86;56.63;99737.88;5079860;28;20059;-64
2024/04/04 04:36:15;;;;;;;17.67;4.90;;;;;;;14.65;57.99;99741.34;5078850;28;20044;-63
2024/04/04 04:38:40;;;;;;;28.20;5.25;;;;;;;14.71;57.92;99745.09;5081385;28;20051;-64
2024/04/04 04:41:06;;;;;;;17.35;3.97;;;;;;;14.63;58.31;99743.38;5080623;28;20047;-63
2024/04/04 04:43:31;;;;;;;14.70;3.40;;;;;;;14.54;58.11;99741.00;5076783;28;20032;-63
2024/04/04 04:45:56;;;;;;;13.00;2.85;;;;;;;14.51;58.13;99746.69;5076377;28;20266;-63
2024/04/04 04:48:22;;;;;;;13.35;3.50;;;;;;;14.53;58.14;99742.00;5078678;28;20037;-63
2024/04/04 04:50:48;;;;;;;21.40;4.97;;;;;;;14.62;57.80;99755.06;5077120;28;20040;-63
2024/04/04 04:53:13;;;;;;;15.82;7.63;;;;;;;14.55;58.01;99762.13;5078684;28;20045;-64
2024/04/04 04:55:39;;;;;;;20.35;10.55;;;;;;;14.58;57.85;99756.44;5077384;28;20219;-64
2024/04/04 04:58:04;;;;;;;20.17;9.57;;;;;;;14.70;57.70;99767.44;5078474;28;20318;-64
2024/04/04 05:00:30;;;;;;;15.00;7.10;;;;;;;14.69;57.92;99761.28;5077702;28;20326;-63
2024/04/04 05:02:56;;;;;;;9.35;4.25;;;;;;;14.67;58.03;99765.16;5077233;28;20049;-63
2024/04/04 05:05:21;;;;;;;8.68;4.10;;;;;;;14.85;57.72;99770.88;5077733;28;20045;-64
2024/04/04 05:07:47;;;;;;;8.68;2.85;;;;;;;14.82;57.88;99773.94;5077179;28;20044;-64
2024/04/04 05:10:13;;;;;;;13.73;2.88;;;;;;;14.83;58.78;99769.41;5077332;28;20395;-64
2024/04/04 05:12:38;;;;;;;17.02;3.53;;;;;;;14.86;59.11;99769.03;5076598;28;20373;-63
2024/04/04 05:15:05;;;;;;;44.13;6.00;;;;;;;14.93;58.54;99764.59;5076783;28;20040;-64
2024/04/04 05:17:32;;;;;;;20.13;4.47;;;;;;;14.99;58.81;99767.34;5077085;28;20275;-64
2024/04/04 05:19:57;;;;;;;16.20;4.45;;;;;;;15.08;58.22;99765.38;5078385;28;20028;-63
2024/04/04 05:22:23;;;;;;;13.38;4.15;;;;;;;15.38;58.28;99757.22;5095597;28;20223;-64
2024/04/04 05:24:49;;;;;;;16.55;3.88;;;;;;;15.79;57.20;99765.41;5098480;28;20036;-64
2024/04/04 05:27:14;;;;;;;16.38;3.90;;;;;;;16.09;55.36;99764.16;5079611;28;20060;-63
2024/04/04 05:29:41;;;;;;;11.23;3.80;;;;;;;16.26;53.87;99760.13;5076969;28;20211;-63
2024/04/04 05:32:07;;;;;;;11.77;3.88;;;;;;;16.46;53.69;99773.56;5076156;28;20048;-63
2024/04/04 05:34:32;;;;;;;12.02;3.97;;;;;;;16.74;53.46;99762.84;5077599;28;20078;-64
2024/04/04 05:36:58;;;;;;;14.20;4.07;;;;;;;16.90;52.29;99773.16;5077473;28;20051;-64
2024/04/04 05:39:23;;;;;;;11.82;3.80;;;;;;;17.10;51.96;99773.19;5077497;28;20029;-64
2024/04/04 05:41:49;;;;;;;11.88;3.55;;;;;;;17.19;52.00;99779.19;5077038;28;20029;-64
2024/04/04 05:44:15;;;;;;;6.45;3.42;;;;;;;17.12;52.84;99786.38;5076880;28;20040;-64
2024/04/04 05:46:41;;;;;;;9.90;3.63;;;;;;;17.31;52.90;99787.44;5076817;28;20033;-64
2024/04/04 05:49:06;;;;;;;8.48;3.10;;;;;;;17.33;52.94;99780.03;5076513;28;20067;-64
2024/04/04 05:51:32;;;;;;;4.85;2.45;;;;;;;17.66;52.50;99780.03;5076979;28;20033;-64
2024/04/04 05:53:58;;;;;;;4.80;2.55;;;;;;;17.79;51.94;99782.75;5076982;28;20044;-64
2024/04/04 05:56:23;;;;;;;5.80;2.75;;;;;;;17.92;51.32;99777.38;5078058;28;20036;-64
2024/04/04 05:58:48;;;;;;;8.25;3.53;;;;;;;18.14;50.33;99773.41;5094104;28;20280;-64
2024/04/04 06:01:14;;;;;;;6.28;3.33;;;;;;;18.39;50.43;99773.53;5097529;28;20043;-64
2024/04/04 06:03:42;;;;;;;7.72;3.50;;;;;;;18.66;49.74;99774.28;5080372;28;20062;-64
2024/04/04 06:06:08;;;;;;;6.55;3.53;;;;;;;18.90;49.25;99769.22;5077312;28;20041;-64
2024/04/04 06:08:33;;;;;;;5.35;3.30;;;;;;;19.20;48.77;99770.28;5076472;28;20074;-64
2024/04/04 06:10:59;;;;;;;2.90;2.03;;;;;;;19.19;45.46;99771.31;5076855;28;20447;-64
2024/04/04 06:13:24;;;;;;;2.77;1.77;;;;;;;18.98;44.56;99768.97;5077272;28;20048;-64
2024/04/04 06:15:54;;;;;;;3.72;1.85;;;;;;;19.06;44.58;99758.81;5077648;28;20032;-64
2024/04/04 06:18:19;;;;;;;3.53;1.50;;;;;;;19.09;43.53;99768.28;5077170;28;20327;-64
2024/04/04 06:20:45;;;;;;;3.10;2.42;;;;;;;19.08;44.08;99766.63;5076735;28;20090;-63
2024/04/04 06:23:11;;;;;;;4.57;1.95;;;;;;;19.02;44.23;99773.69;5082659;28;20044;-64
2024/04/04 06:25:36;;;;;;;8.80;3.17;;;;;;;19.31;44.34;99783.00;5096848;28;20030;-63
2024/04/04 06:28:02;;;;;;;3.63;1.65;;;;;;;19.36;43.82;99783.16;5094606;28;20321;-64
2024/04/04 06:30:28;;;;;;;2.20;1.40;;;;;;;19.41;44.05;99786.00;5076596;28;20407;-65
2024/04/04 06:32:53;;;;;;;5.85;2.08;;;;;;;19.40;43.85;99791.59;5077154;28;20037;-64
2024/04/04 06:35:18;;;;;;;3.70;1.80;;;;;;;19.66;43.68;99788.72;5095642;28;20070;-64
2024/04/04 06:37:47;;;;;;;3.00;1.70;;;;;;;19.70;43.07;99789.94;5097441;28;20024;-64
2024/04/04 06:40:16;;;;;;;2.58;1.67;;;;;;;19.62;43.03;99800.13;5081068;28;20120;-64
2024/04/04 06:42:42;;;;;;;3.42;1.65;;;;;;;19.59;43.33;99808.63;5080338;28;20046;-64
2024/04/04 06:45:08;;;;;;;3.53;1.75;;;;;;;19.54;43.62;99811.97;5082379;28;20323;-63
2024/04/04 06:47:40;;;;;;;3.33;1.88;;;;;;;19.67;43.14;99801.13;5079967;28;20342;-64
2024/04/04 06:50:06;;;;;;;3.85;1.95;;;;;;;20.00;43.03;99805.41;5081802;28;20060;-64
2024/04/04 06:52:31;;;;;;;5.15;2.60;;;;;;;20.24;41.71;99806.41;5080087;28;20103;-63
2024/04/04 06:54:57;;;;;;;7.80;2.55;;;;;;;20.38;42.21;99808.72;5081444;28;20697;-63
2024/04/04 06:57:22;;;;;;;7.22;2.42;;;;;;;20.41;42.30;99804.78;5079706;28;20063;-63
2024/04/04 06:59:48;;;;;;;8.75;2.33;;;;;;;20.69;40.14;99798.84;5081019;28;20314;-64
2024/04/04 07:02:13;;;;;;;4.88;2.10;;;;;;;21.03;39.59;99800.91;5080907;28;20032;-64
2024/04/04 07:04:39;;;;;;;5.85;1.73;;;;;;;21.28;38.89;99798.09;5081201;28;20081;-64
2024/04/04 07:07:05;;;;;;;4.85;1.45;;;;;;;21.49;37.55;99794.03;5081240;28;20055;-63
2024/04/04 07:09:30;;;;;;;3.35;1.40;;;;;;;21.47;37.19;99792.63;5079789;28;20037;-63
2024/04/04 07:11:56;;;;;;;4.78;1.60;;;;;;;21.82;37.71;99784.56;5081415;28;20361;-64
2024/04/04 07:14:21;;;;;;;4.05;1.70;;;;;;;21.77;36.14;99785.28;5080340;28;20210;-64
2024/04/04 07:16:47;;;;;;;19.25;3.58;;;;;;;21.94;36.25;99783.53;5081051;28;20040;-64
2024/04/04 07:19:12;;;;;;;5.78;1.75;;;;;;;21.98;36.22;99786.59;5080217;28;20218;-64
2024/04/04 07:21:38;;;;;;;6.00;1.52;;;;;;;22.03;36.15;99784.03;5080861;28;20025;-64
2024/04/04 07:24:04;;;;;;;1.95;1.15;;;;;;;22.14;36.18;99794.00;5079688;28;20036;-63
2024/04/04 07:26:29;;;;;;;3.00;1.33;;;;;;;22.02;36.03;99790.47;5080638;28;20040;-64
2024/04/04 07:28:55;;;;;;;2.28;1.65;;;;;;;22.11;35.37;99793.66;5079403;28;20063;-64
2024/04/04 07:31:20;;;;;;;3.15;1.67;;;;;;;22.35;34.87;99800.66;5080796;28;20033;-64
2024/04/04 07:33:46;;;;;;;2.00;1.08;;;;;;;22.35;36.12;99797.13;5080008;28;20040;-65
2024/04/04 07:36:11;;;;;;;4.30;1.38;;;;;;;22.51;36.19;99791.00;5081089;28;20036;-64
2024/04/04 07:38:38;;;;;;;2.92;1.35;;;;;;;22.77;35.60;99784.22;5080044;28;20258;-64
2024/04/04 07:41:06;;;;;;;3.20;1.20;;;;;;;22.82;35.62;99785.16;5079198;28;20044;-64
2024/04/04 07:43:33;;;;;;;3.53;1.40;;;;;;;22.71;35.59;99791.41;5081030;28;20356;-64
2024/04/04 07:46:01;;;;;;;2.42;1.40;;;;;;;22.66;35.46;99777.81;5079578;28;20269;-63
2024/04/04 07:48:27;;;;;;;3.10;1.20;;;;;;;22.83;33.93;99789.50;5081377;28;20032;-65
2024/04/04 07:50:53;;;;;;;3.13;1.30;;;;;;;22.39;34.15;99787.50;5078403;28;20037;-64
2024/04/04 07:53:18;;;;;;;3.10;1.35;;;;;;;22.57;33.99;99784.63;5080716;28;20051;-64
2024/04/04 07:55:44;;;;;;;4.65;2.15;;;;;;;22.95;34.10;99777.88;5078717;28;20044;-65
2024/04/04 07:58:09;;;;;;;1.17;1.05;;;;;;;23.08;34.07;99772.16;5080604;28;20040;-65
2024/04/04 08:00:36;;;;;;;2.45;1.20;;;;;;;23.25;33.63;99770.31;5079587;28;20036;-64
2024/04/04 08:03:02;;;;;;;3.28;1.35;;;;;;;23.11;33.10;99772.50;5080545;28;20031;-64
2024/04/04 08:05:28;;;;;;;4.10;1.73;;;;;;;23.07;34.20;99770.53;5079167;28;20036;-64
2024/04/04 08:07:54;;;;;;;3.40;1.70;;;;;;;22.99;33.54;99769.03;5079815;28;20318;-64
2024/04/04 08:10:19;;;;;;;1.95;1.17;;;;;;;23.04;34.33;99771.00;5080851;28;20059;-64
2024/04/04 08:12:46;;;;;;;3.25;1.40;;;;;;;22.94;33.72;99774.34;5077757;28;20035;-64
2024/04/04 08:15:14;;;;;;;2.85;1.10;;;;;;;22.88;34.67;99770.69;5077101;28;20344;-64
2024/04/04 08:17:40;;;;;;;3.17;1.30;;;;;;;22.95;33.85;99772.47;5079729;28;20055;-64
2024/04/04 08:20:11;;;;;;;2.63;1.33;;;;;;;22.88;33.38;99776.09;5078751;28;20036;-64
2024/04/04 08:22:36;;;;;;;2.88;1.30;;;;;;;22.95;34.58;99772.47;5078185;28;20028;-64
2024/04/04 08:25:02;;;;;;;2.40;1.50;;;;;;;23.12;33.81;99762.50;5076836;28;20349;-64
2024/04/04 08:27:28;;;;;;;3.55;1.70;;;;;;;23.41;33.50;99763.28;5078207;28;20077;-64
2024/04/04 08:29:53;;;;;;;5.85;1.48;;;;;;;23.66;32.74;99758.31;5079090;28;20024;-64
2024/04/04 08:32:19;;;;;;;1.67;1.02;;;;;;;23.79;32.35;99757.13;5078234;28;20072;-65
2024/04/04 08:34:44;;;;;;;3.97;1.67;;;;;;;23.87;32.51;99757.53;5084207;28;20059;-64
2024/04/04 08:37:10;;;;;;;4.65;1.40;;;;;;;24.08;30.93;99764.09;5098163;28;20058;-64
2024/04/04 08:39:37;;;;;;;4.30;1.58;;;;;;;24.05;31.53;99759.16;5095524;28;20562;-64
2024/04/04 08:42:03;;;;;;;3.40;1.20;;;;;;;24.12;31.17;99757.09;5077300;28;20385;-64
2024/04/04 08:44:29;;;;;;;2.88;1.17;;;;;;;24.07;32.81;99748.91;5079002;28;20032;-65
2024/04/04 08:46:55;;;;;;;1.60;1.20;;;;;;;23.95;30.13;99747.41;5076983;28;20044;-64
2024/04/04 08:49:22;;;;;;;11.93;2.00;;;;;;;23.84;30.17;99741.00;5078232;28;20044;-64
2024/04/04 08:51:48;;;;;;;3.97;1.60;;;;;;;23.91;31.39;99744.34;5094016;28;20027;-64
2024/04/04 08:54:14;;;;;;;2.42;1.10;;;;;;;23.77;31.27;99737.66;5098113;28;20313;-64
2024/04/04 08:56:42;;;;;;;2.75;1.10;;;;;;;23.78;31.70;99733.88;5096566;28;20036;-64
2024/04/04 08:59:08;;;;;;;2.08;1.10;;;;;;;23.92;30.17;99737.03;5097644;28;20084;-64
2024/04/04 09:01:33;;;;;;;3.40;1.20;;;;;;;23.94;30.15;99729.53;5084472;28;20036;-64
2024/04/04 09:03:59;;;;;;;3.22;1.35;;;;;;;23.94;31.16;99733.06;5077419;28;20040;-64
2024/04/04 09:06:25;;;;;;;3.80;1.52;;;;;;;24.07;31.15;99732.69;5077727;28;20220;-64
2024/04/04 09:08:54;;;;;;;2.28;1.30;;;;;;;23.93;30.91;99731.41;5077531;28;20119;-64
2024/04/04 09:11:29;;;;;;;5.68;1.60;;;;;;;24.04;31.25;99727.78;5077569;28;20039;-65
2024/04/04 09:14:09;;;;;;;1.58;1.30;;;;;;;24.12;31.51;99713.81;5077634;28;20055;-65
2024/04/04 09:16:38;;;;;;;6.05;1.90;;;;;;;24.29;31.05;99716.50;5084462;28;20042;-64
2024/04/04 09:19:11;;;;;;;1.77;1.13;;;;;;;24.33;31.03;99704.09;5097521;28;20036;-64
2024/04/04 09:21:37;;;;;;;4.53;1.10;;;;;;;24.13;31.21;99710.03;5097537;28;20032;-64
2024/04/04 09:24:08;;;;;;;1.75;1.00;;;;;;;24.12;30.61;99708.41;5097874;28;20361;-64
2024/04/04 09:26:35;;;;;;;1.25;0.90;;;;;;;24.14;30.75;99703.56;5092230;28;21939;-65
2024/04/04 09:29:02;;;;;;;26.48;3.83;;;;;;;24.14;30.62;99703.56;5076359;28;20044;-64
2024/04/04 09:31:29;;;;;;;3.08;1.00;;;;;;;24.10;30.04;99702.44;5078078;28;20041;-64
2024/04/04 09:33:59;;;;;;;1.95;0.90;;;;;;;24.00;29.65;99694.19;5097337;28;20044;-64
2024/04/04 09:36:33;;;;;;;2.75;1.50;;;;;;;23.83;30.72;99693.38;5098029;28;20091;-64
2024/04/04 09:39:00;;;;;;;1.90;1.10;;;;;;;23.88;30.63;99698.88;5076657;28;20071;-64
2024/04/04 09:41:29;;;;;;;3.08;1.13;;;;;;;23.71;30.53;99696.19;5078519;28;20067;-64
2024/04/04 09:43:57;;;;;;;4.65;1.35;;;;;;;23.63;30.06;99693.09;5076461;28;20384;-64
2024/04/04 09:46:26;;;;;;;4.43;1.20;;;;;;;23.48;31.47;99693.66;5077803;28;20046;-64
2024/04/04 09:48:53;;;;;;;1.95;1.10;;;;;;;23.38;30.08;99685.41;5075959;28;20040;-64
2024/04/04 09:51:20;;;;;;;3.13;1.00;;;;;;;23.45;30.46;99684.16;5077731;28;20265;-64
2024/04/04 09:53:48;;;;;;;1.88;1.02;;;;;;;23.46;31.94;99676.88;5090124;28;20028;-64
2024/04/04 09:56:16;;;;;;;2.40;1.27;;;;;;;23.33;31.75;99678.03;5097551;28;20234;-64
2024/04/04 09:58:43;;;;;;;2.22;1.00;;;;;;;23.38;32.10;99669.19;5085841;28;20035;-64
2024/04/04 10:01:18;;;;;;;1.10;0.80;;;;;;;23.39;31.46;99670.84;5077493;28;20040;-65
2024/04/04 10:03:52;;;;;;;3.00;1.10;;;;;;;23.42;30.80;99667.63;5076994;28;20032;-64
2024/04/04 10:06:28;;;;;;;2.08;0.88;;;;;;;23.35;31.35;99659.69;5077176;28;20040;-64
2024/04/04 10:08:56;;;;;;;2.75;0.90;;;;;;;23.30;31.27;99665.03;5077616;28;20318;-64
2024/04/04 10:11:33;;;;;;;3.72;1.25;;;;;;;23.36;31.20;99661.34;5077336;28;20064;-65
2024/04/04 10:14:02;;;;;;;3.10;1.75;;;;;;;23.45;31.41;99659.03;5077458;28;20032;-64
2024/04/04 10:16:38;;;;;;;2.40;1.20;;;;;;;23.58;30.96;99655.19;5079771;28;20157;-64
2024/04/04 10:19:18;;;;;;;4.63;1.38;;;;;;;23.72;31.12;99651.88;5081535;28;20309;-65
2024/04/04 10:21:44;;;;;;;1.27;0.98;;;;;;;23.72;31.33;99646.47;5080570;28;20044;-65
2024/04/04 10:24:19;;;;;;;2.95;1.20;;;;;;;23.73;32.30;99644.59;5081253;28;20078;-64
2024/04/04 10:26:59;;;;;;;1.75;0.95;;;;;;;23.73;31.28;99642.69;5081246;28;20039;-64
2024/04/04 10:29:35;;;;;;;2.70;0.85;;;;;;;23.64;30.16;99636.09;5081523;28;20280;-64
2024/04/04 10:32:08;;;;;;;1.50;1.30;;;;;;;23.63;30.63;99629.06;5080744;28;20232;-64
2024/04/04 10:34:34;;;;;;;1.87;1.47;;;;;;;23.68;31.36;99631.81;5081662;28;20032;-64
2024/04/04 10:37:00;;;;;;;2.70;1.35;;;;;;;23.73;30.23;99637.28;5080969;28;20046;-64
2024/04/04 10:39:26;;;;;;;3.05;1.30;;;;;;;23.72;29.30;99637.53;5079551;28;20049;-64
2024/04/04 10:41:55;;;;;;;1.83;1.00;;;;;;;23.72;29.23;99637.53;5081586;28;20040;-65
2024/04/04 10:44:22;;;;;;;1.35;0.80;;;;;;;23.63;29.71;99629.06;5080199;28;20424;-64
2024/04/04 10:46:54;;;;;;;3.13;1.20;;;;;;;23.53;29.19;99632.41;5082007;28;20052;-64
2024/04/04 10:49:23;;;;;;;2.80;1.08;;;;;;;23.53;28.62;99616.19;5079879;28;20035;-65
2024/04/04 10:51:51;;;;;;;2.85;0.98;;;;;;;23.45;29.33;99626.59;5082191;28;20063;-64
2024/04/04 10:54:18;;;;;;;2.55;1.10;;;;;;;23.38;29.53;99620.56;5080270;28;20263;-64
2024/04/04 10:56:50;;;;;;;2.75;1.23;;;;;;;23.52;30.38;99622.66;5081513;28;20365;-64
2024/04/04 10:59:20;;;;;;;1.77;0.90;;;;;;;23.73;30.37;99617.56;5080349;28;20056;-64
2024/04/04 11:01:50;;;;;;;2.28;1.00;;;;;;;23.70;29.60;99615.34;5081143;28;20358;-65
2024/04/04 11:04:18;;;;;;;2.95;1.30;;;;;;;23.60;29.73;99617.91;5078719;28;20036;-64
2024/04/04 11:06:44;;;;;;;1.55;1.08;;;;;;;23.68;29.94;99612.91;5081240;28;20047;-65
2024/04/04 11:09:15;;;;;;;22.10;3.08;;;;;;;23.78;30.02;99613.03;5080940;28;20032;-65
2024/04/04 11:11:46;;;;;;;2.72;1.10;;;;;;;23.82;29.56;99605.22;5081094;28;20463;-65
2024/04/04 11:14:13;;;;;;;2.38;1.17;;;;;;;23.88;28.17;99609.63;5080528;28;20047;-64
2024/04/04 11:16:39;;;;;;;2.05;1.25;;;;;;;23.82;30.34;99595.22;5081155;28;20032;-64
2024/04/04 11:19:11;;;;;;;4.65;1.23;;;;;;;23.76;28.50;99600.81;5079878;28;20307;-64
2024/04/04 11:21:38;;;;;;;2.97;1.10;;;;;;;23.68;28.75;99593.97;5080332;28;20059;-64
2024/04/04 11:24:04;;;;;;;3.60;1.70;;;;;;;23.68;27.86;99596.69;5080301;28;20200;-64
2024/04/04 11:26:30;;;;;;;3.60;1.58;;;;;;;23.64;28.59;99594.72;5079893;28;20037;-64
2024/04/04 11:28:58;;;;;;;5.18;1.40;;;;;;;23.55;27.84;99589.75;5080349;28;20040;-65